Time;durP1;ratioP1;P1;durP2;ratioP2;P2;SDS_P1;SDS_P2;PMS_P1;PMS_P2;Temp;Humidity;BMP_temperature;BMP_pressure;BME280_temperature;BME280_humidity;BME280_pressure;Samples;Min_cycle;Max_cycle;Signal;HPM_P1;HPM_P2
2022/07/04 00:02:49;;;;;;;;;;;;;;;15.88;59.60;95607.56;6369045;27;19923;-63
2022/07/04 00:05:52;;;;;;;;;;;;;;;15.81;59.79;95608.34;6369874;27;19919;-63
2022/07/04 00:08:55;;;;;;;;;;;;;;;15.73;59.71;95616.28;6368236;27;19924;-62
2022/07/04 00:11:58;;;;;;;;;;;;;;;15.74;59.94;95600.22;6350293;27;19924;-63
2022/07/04 00:15:01;;;;;;;;;;;;;;;15.84;60.36;95602.72;6346888;27;19923;-62
2022/07/04 00:18:07;;;;;;;;;;;;;;;15.95;60.83;95610.38;6368027;27;20404;-62
2022/07/04 00:21:11;;;;;;;;;;;;;;;15.79;61.34;95602.38;6369346;27;19923;-62
2022/07/04 00:24:14;;;;;;;;;;;;;;;15.49;61.23;95604.59;6350088;27;19927;-63
2022/07/04 00:27:17;;;;;;;;;;;;;;;15.34;61.50;95601.72;6367622;27;19927;-63
2022/07/04 00:30:20;;;;;;;;;;;;;;;15.17;61.77;95600.84;6368281;27;19923;-63
2022/07/04 00:33:24;;;;;;;;;;;;;;;15.13;62.65;95596.81;6359927;27;19927;-63
2022/07/04 00:36:27;;;;;;;;;;;;;;;15.01;62.74;95590.16;6361839;27;19923;-63
2022/07/04 00:39:30;;;;;;;;;;;;;;;14.94;63.30;95599.72;6366322;27;20267;-62
2022/07/04 00:42:34;;;;;;;;;;;;;;;14.91;63.72;95594.72;6364221;27;19927;-62
2022/07/04 00:45:36;;;;;;;;;;;;;;;14.77;64.18;95594.31;6365665;27;19927;-62
2022/07/04 00:48:40;;;;;;;;;;;;;;;14.85;64.49;95592.72;6367128;27;19923;-62
2022/07/04 00:51:44;;;;;;;;;;;;;;;14.79;64.89;95597.66;6367021;27;19927;-64
2022/07/04 00:54:48;;;;;;;;;;;;;;;14.67;65.16;95598.91;6368620;27;19923;-62
2022/07/04 00:57:52;;;;;;;;;;;;;;;14.69;65.29;95596.09;6367111;27;20214;-63
2022/07/04 01:00:55;;;;;;;;;;;;;;;14.75;65.43;95596.31;6367924;27;19923;-62
2022/07/04 01:03:59;;;;;;;;;;;;;;;14.83;65.40;95598.16;6366186;27;20022;-62
2022/07/04 01:07:04;;;;;;;;;;;;;;;14.92;65.40;95597.25;6365235;27;19923;-62
2022/07/04 01:10:07;;;;;;;;;;;;;;;14.90;65.52;95598.38;6368605;27;19923;-62
2022/07/04 01:13:20;;;;;;;;;;;;;;;14.89;65.48;95602.00;6366322;27;20400;-62
2022/07/04 01:16:24;;;;;;;;;;;;;;;14.85;65.48;95600.66;6346173;28;20679;-62
2022/07/04 01:19:27;;;;;;;;;;;;;;;14.94;65.35;95589.13;6359726;28;20017;-62
2022/07/04 01:22:31;;;;;;;;;;;;;;;15.08;65.38;95591.16;6366983;27;19927;-63
2022/07/04 01:25:35;;;;;;;;;;;;;;;15.29;65.26;95598.72;6365644;28;19923;-62
2022/07/04 01:28:38;;;;;;;;;;;;;;;15.13;65.21;95598.66;6367759;27;19923;-63
2022/07/04 01:31:42;;;;;;;;;;;;;;;15.13;65.21;95594.19;6365320;27;20308;-63
2022/07/04 01:34:45;;;;;;;;;;;;;;;15.25;64.92;95587.59;6349259;28;19923;-62
2022/07/04 01:37:48;;;;;;;;;;;;;;;15.39;64.90;95593.28;6368089;27;19924;-62
2022/07/04 01:40:51;;;;;;;;;;;;;;;15.48;64.48;95589.66;6367667;28;20432;-62
2022/07/04 01:43:54;;;;;;;;;;;;;;;15.64;64.56;95597.66;6365062;28;20391;-63
2022/07/04 01:46:57;;;;;;;;;;;;;;;15.75;64.36;95598.41;6367856;27;19923;-63
2022/07/04 01:50:01;;;;;;;;;;;;;;;15.83;64.18;95601.06;6367966;28;20300;-62
2022/07/04 01:53:07;;;;;;;;;;;;;;;15.86;64.20;95584.84;6367827;28;19945;-62
2022/07/04 01:56:11;;;;;;;;;;;;;;;15.90;64.25;95599.41;6368119;27;19924;-62
2022/07/04 01:59:14;;;;;;;;;;;;;;;16.03;64.54;95596.28;6363402;28;20315;-63
2022/07/04 02:02:18;;;;;;;;;;;;;;;16.03;64.59;95597.13;6363667;27;20393;-63
2022/07/04 02:05:22;;;;;;;;;;;;;;;16.08;64.38;95600.13;6364681;28;19923;-63
2022/07/04 02:09:14;;;;;;;;;;;;;;;16.23;64.26;95612.72;6348902;28;19923;-63
2022/07/04 02:15:10;;;;;;;;;;;;;;;16.10;64.34;95611.38;6361544;27;19924;-62
2022/07/04 02:18:13;;;;;;;;;;;;;;;16.10;64.62;95606.06;6343466;28;19931;-62
2022/07/04 02:21:16;;;;;;;;;;;;;;;15.96;64.82;95603.22;6365966;27;19923;-62
2022/07/04 02:24:20;;;;;;;;;;;;;;;15.89;65.20;95605.72;6369715;27;19923;-62
2022/07/04 02:27:23;;;;;;;;;;;;;;;15.89;65.06;95605.72;6366532;27;19927;-62
2022/07/04 02:30:27;;;;;;;;;;;;;;;15.99;64.90;95603.72;6369568;27;19924;-62
2022/07/04 02:33:31;;;;;;;;;;;;;;;16.10;64.79;95603.41;6365647;27;19933;-62
2022/07/04 02:36:35;;;;;;;;;;;;;;;16.30;64.43;95597.78;6371796;27;19927;-63
2022/07/04 02:39:39;;;;;;;;;;;;;;;16.49;64.10;95597.44;6370396;27;19955;-63
2022/07/04 02:42:43;;;;;;;;;;;;;;;16.63;63.67;95592.47;6364411;27;19931;-63
2022/07/04 02:45:46;;;;;;;;;;;;;;;16.66;63.53;95597.44;6369819;27;19927;-62
2022/07/04 02:48:49;;;;;;;;;;;;;;;16.76;63.68;95598.09;6363890;27;19919;-62
2022/07/04 02:51:53;;;;;;;;;;;;;;;16.88;62.95;95599.41;6371173;27;19924;-62
2022/07/04 02:54:56;;;;;;;;;;;;;;;16.91;62.55;95601.72;6370876;27;19926;-62
2022/07/04 02:57:59;;;;;;;;;;;;;;;17.00;62.89;95600.72;6370091;27;20439;-62
2022/07/04 03:01:02;;;;;;;;;;;;;;;17.16;62.22;95597.19;6370638;27;19923;-63
2022/07/04 03:04:06;;;;;;;;;;;;;;;17.42;61.78;95602.22;6371321;27;19924;-62
2022/07/04 03:07:08;;;;;;;;;;;;;;;17.75;61.14;95602.06;6368382;27;19923;-63
2022/07/04 03:10:11;;;;;;;;;;;;;;;17.85;60.79;95605.34;6352533;27;19924;-63
2022/07/04 03:13:15;;;;;;;;;;;;;;;17.87;60.53;95599.88;6365489;27;19927;-62
2022/07/04 03:16:18;;;;;;;;;;;;;;;18.09;59.86;95600.91;6368694;27;20369;-62
2022/07/04 03:19:22;;;;;;;;;;;;;;;18.13;59.79;95610.19;6366418;27;19924;-62
2022/07/04 03:22:24;;;;;;;;;;;;;;;18.10;59.84;95607.88;6369389;27;20316;-62
2022/07/04 03:25:27;;;;;;;;;;;;;;;18.31;59.26;95616.00;6370176;27;19968;-62
2022/07/04 03:28:32;;;;;;;;;;;;;;;18.46;58.67;95615.28;6367455;27;20154;-63
2022/07/04 03:31:36;;;;;;;;;;;;;;;18.61;58.48;95616.94;6368062;27;19923;-62
2022/07/04 03:34:40;;;;;;;;;;;;;;;18.72;58.33;95612.19;6366555;27;19924;-63
2022/07/04 03:37:43;;;;;;;;;;;;;;;18.93;57.70;95627.50;6369154;27;19931;-63
2022/07/04 03:40:47;;;;;;;;;;;;;;;18.95;57.78;95622.84;6364913;27;19923;-62
2022/07/04 03:43:51;;;;;;;;;;;;;;;18.96;57.63;95625.31;6365822;27;20400;-63
2022/07/04 03:46:55;;;;;;;;;;;;;;;18.85;58.10;95623.09;6361895;27;19924;-62
2022/07/04 03:49:58;;;;;;;;;;;;;;;19.00;57.97;95609.78;6367390;27;19923;-63
2022/07/04 03:53:01;;;;;;;;;;;;;;;19.36;56.79;95617.03;6367451;27;21446;-63
2022/07/04 03:56:08;;;;;;;;;;;;;;;19.44;56.30;95620.44;6363622;27;19924;-63
2022/07/04 03:59:11;;;;;;;;;;;;;;;19.27;55.71;95622.47;6369580;27;19924;-63
2022/07/04 04:02:15;;;;;;;;;;;;;;;19.34;55.49;95627.09;6368113;27;19924;-62
2022/07/04 04:05:30;;;;;;;;;;;;;;;19.58;55.08;95632.13;6369118;27;19944;-63
2022/07/04 04:08:33;;;;;;;;;;;;;;;19.58;54.59;95628.63;6358967;27;19923;-63
2022/07/04 04:11:37;;;;;;;;;;;;;;;19.60;54.46;95630.09;6349617;27;20416;-63
2022/07/04 04:14:40;;;;;;;;;;;;;;;19.76;54.22;95633.59;6365581;27;19923;-63
2022/07/04 04:17:44;;;;;;;;;;;;;;;19.78;53.91;95634.25;6366525;27;19923;-62
2022/07/04 04:20:48;;;;;;;;;;;;;;;19.68;54.27;95629.22;6364307;27;19923;-62
2022/07/04 04:23:51;;;;;;;;;;;;;;;19.64;53.64;95634.03;6365484;27;19923;-62
2022/07/04 04:26:54;;;;;;;;;;;;;;;19.72;53.40;95631.31;6365923;27;19923;-63
2022/07/04 04:29:57;;;;;;;;;;;;;;;19.65;53.59;95629.56;6365610;27;19923;-62
2022/07/04 04:33:01;;;;;;;;;;;;;;;19.72;53.10;95625.97;6368904;27;19923;-62
2022/07/04 04:36:05;;;;;;;;;;;;;;;19.67;53.36;95627.53;6366863;27;20388;-62
2022/07/04 04:39:09;;;;;;;;;;;;;;;19.71;53.02;95618.16;6367584;27;20388;-62
2022/07/04 04:42:13;;;;;;;;;;;;;;;20.01;52.37;95629.56;6360717;27;19923;-63
2022/07/04 04:45:16;;;;;;;;;;;;;;;20.18;51.90;95624.81;6363810;27;19924;-62
2022/07/04 04:48:20;;;;;;;;;;;;;;;20.01;51.74;95624.25;6360794;27;19927;-62
2022/07/04 04:51:22;;;;;;;;;;;;;;;19.56;52.21;95636.84;6339609;27;19927;-63
2022/07/04 04:54:25;;;;;;;;;;;;;;;19.04;53.48;95627.06;6365282;27;19923;-62
2022/07/04 04:57:29;;;;;;;;;;;;;;;18.75;53.84;95631.34;6367075;27;19923;-63
2022/07/04 05:00:32;;;;;;;;;;;;;;;18.58;54.31;95635.13;6359636;27;19923;-63
2022/07/04 05:03:36;;;;;;;;;;;;;;;18.26;54.89;95628.22;6366303;27;20677;-62
2022/07/04 05:06:40;;;;;;;;;;;;;;;18.12;55.44;95629.81;6363318;27;19923;-63
2022/07/04 05:09:44;;;;;;;;;;;;;;;18.07;55.71;95624.19;6363723;27;20293;-63
2022/07/04 05:12:47;;;;;;;;;;;;;;;18.08;55.84;95623.19;6359378;27;19923;-63
2022/07/04 05:15:51;;;;;;;;;;;;;;;18.16;55.17;95618.63;6365371;27;19923;-63
2022/07/04 05:18:54;;;;;;;;;;;;;;;18.18;54.96;95621.13;6367317;28;19930;-63
2022/07/04 05:21:58;;;;;;;;;;;;;;;18.28;54.37;95621.69;6365140;27;19928;-62
2022/07/04 05:25:01;;;;;;;;;;;;;;;18.24;53.93;95620.41;6363085;28;19924;-62
2022/07/04 05:28:06;;;;;;;;;;;;;;;18.55;53.47;95627.50;6367090;28;21574;-61
2022/07/04 05:31:09;;;;;;;;;;;;;;;18.79;52.78;95623.81;6366109;28;20308;-63
2022/07/04 05:34:12;;;;;;;;;;;;;;;19.03;52.46;95626.25;6366101;27;20404;-63
2022/07/04 05:37:15;;;;;;;;;;;;;;;19.03;52.57;95628.09;6341907;27;20292;-62
2022/07/04 05:40:18;;;;;;;;;;;;;;;19.18;52.34;95634.25;6362508;28;20300;-63
2022/07/04 05:43:22;;;;;;;;;;;;;;;19.28;51.83;95629.47;6360634;28;19923;-63
2022/07/04 05:46:26;;;;;;;;;;;;;;;19.48;51.44;95634.25;6364779;28;19924;-62
2022/07/04 05:49:29;;;;;;;;;;;;;;;19.70;51.38;95620.00;6367358;28;20010;-62
2022/07/04 05:52:32;;;;;;;;;;;;;;;19.72;51.48;95633.97;6366328;27;19923;-63
2022/07/04 05:55:35;;;;;;;;;;;;;;;19.88;50.80;95632.13;6362232;27;19923;-62
2022/07/04 05:58:39;;;;;;;;;;;;;;;20.08;50.71;95635.84;6368868;27;19920;-62
2022/07/04 06:01:42;;;;;;;;;;;;;;;21.73;47.63;95634.69;6367557;27;19923;-63
2022/07/04 06:04:46;;;;;;;;;;;;;;;23.92;42.69;95634.81;6374097;27;19924;-62
2022/07/04 06:07:49;;;;;;;;;;;;;;;26.66;38.06;95639.34;6374197;27;20021;-64
2022/07/04 06:10:52;;;;;;;;;;;;;;;28.81;35.12;95644.06;6356042;27;19923;-63
2022/07/04 06:13:56;;;;;;;;;;;;;;;28.32;35.43;95641.00;6354096;27;19923;-62
2022/07/04 06:16:59;;;;;;;;;;;;;;;27.50;35.72;95650.06;6364083;27;19930;-63
2022/07/04 06:20:03;;;;;;;;;;;;;;;28.45;34.80;95651.56;6368748;27;19924;-64
2022/07/04 06:23:07;;;;;;;;;;;;;;;30.97;31.17;95654.06;6368225;27;19923;-63
2022/07/04 06:26:11;;;;;;;;;;;;;;;34.56;27.42;95651.09;6370127;27;19923;-64
2022/07/04 06:29:13;;;;;;;;;;;;;;;37.02;24.44;95650.31;6370236;27;20333;-65
2022/07/04 06:32:16;;;;;;;;;;;;;;;36.96;23.44;95650.66;6362321;27;19923;-64
2022/07/04 06:38:44;;;;;;;;;;;;;;;32.02;28.42;95638.00;6366816;27;19928;-67
2022/07/04 06:41:47;;;;;;;;;;;;;;;30.31;29.33;95619.72;6346979;27;20483;-67
2022/07/04 06:44:50;;;;;;;;;;;;;;;27.89;32.93;95624.19;6371081;27;20404;-67
2022/07/04 06:47:54;;;;;;;;;;;;;;;26.28;35.51;95615.41;6368217;27;19923;-67
2022/07/04 06:50:57;;;;;;;;;;;;;;;25.06;37.22;95614.25;6361178;27;19923;-66
2022/07/04 06:54:00;;;;;;;;;;;;;;;24.37;38.55;95610.63;6370456;27;20385;-65
2022/07/04 06:57:03;;;;;;;;;;;;;;;25.12;37.43;95612.53;6359967;27;20409;-66
2022/07/04 07:00:08;;;;;;;;;;;;;;;28.13;32.90;95616.00;6364518;27;19923;-67
2022/07/04 07:03:12;;;;;;;;;;;;;;;28.21;32.60;95624.56;6366265;27;20391;-66
2022/07/04 07:06:16;;;;;;;;;;;;;;;27.38;33.80;95625.75;6370127;27;20912;-66
2022/07/04 07:09:19;;;;;;;;;;;;;;;26.76;34.62;95618.03;6366296;27;20301;-66
2022/07/04 07:12:23;;;;;;;;;;;;;;;26.47;35.39;95624.25;6365011;27;20385;-66
2022/07/04 07:15:26;;;;;;;;;;;;;;;29.69;31.18;95628.16;6363098;27;19920;-65
2022/07/04 07:18:29;;;;;;;;;;;;;;;33.95;26.56;95646.66;6360883;27;19928;-65
2022/07/04 07:21:32;;;;;;;;;;;;;;;35.59;24.96;95652.03;6343650;27;19943;-67
2022/07/04 07:24:36;;;;;;;;;;;;;;;33.96;26.85;95657.28;6356346;27;19938;-68
2022/07/04 07:27:41;;;;;;;;;;;;;;;31.42;29.13;95655.53;6356930;27;19923;-66
2022/07/04 07:30:44;;;;;;;;;;;;;;;27.89;35.07;95653.09;6363661;27;19928;-66
2022/07/04 07:33:47;;;;;;;;;;;;;;;25.57;39.33;95646.50;6362485;27;19923;-68
2022/07/04 07:36:51;;;;;;;;;;;;;;;24.15;42.49;95641.53;6362045;27;19924;-65
2022/07/04 07:39:54;;;;;;;;;;;;;;;23.19;44.58;95644.91;6367155;27;19923;-67
2022/07/04 07:42:57;;;;;;;;;;;;;;;22.69;45.52;95647.97;6361939;27;19923;-66
2022/07/04 07:46:00;;;;;;;;;;;;;;;22.66;46.46;95645.69;6341997;27;19923;-66
2022/07/04 07:49:04;;;;;;;;;;;;;;;21.92;48.13;95641.97;6341327;27;20316;-66
2022/07/04 07:52:08;;;;;;;;;;;;;;;20.78;50.46;95641.47;6362351;27;19924;-65
2022/07/04 07:55:10;;;;;;;;;;;;;;;19.90;53.74;95646.94;6351259;27;20380;-66
2022/07/04 07:58:14;;;;;;;;;;;;;;;19.32;55.34;95645.94;6363242;27;19923;-66
2022/07/04 08:01:18;;;;;;;;;;;;;;;19.05;56.05;95647.38;6365941;27;19923;-67
2022/07/04 08:04:34;;;;;;;;;;;;;;;19.10;55.98;95639.66;6362951;27;19923;-66
2022/07/04 08:07:37;;;;;;;;;;;;;;;19.24;54.93;95644.19;6359784;27;19924;-66
2022/07/04 08:10:41;;;;;;;;;;;;;;;19.38;54.98;95641.72;6363534;27;19924;-68
2022/07/04 08:13:45;;;;;;;;;;;;;;;19.43;55.33;95642.00;6362689;27;19923;-66
2022/07/04 08:16:49;;;;;;;;;;;;;;;19.40;55.98;95647.69;6363431;27;20300;-67
2022/07/04 08:19:53;;;;;;;;;;;;;;;19.27;57.09;95653.66;6361191;27;20305;-69
2022/07/04 08:22:57;;;;;;;;;;;;;;;19.12;57.67;95653.66;6355289;27;19927;-66
2022/07/04 08:26:01;;;;;;;;;;;;;;;19.33;57.13;95652.09;6366228;27;19927;-66
2022/07/04 08:29:17;;;;;;;;;;;;;;;19.65;56.44;95657.09;6343568;27;19927;-66
2022/07/04 08:32:20;;;;;;;;;;;;;;;19.69;56.01;95658.38;6361826;27;19927;-66
2022/07/04 08:35:24;;;;;;;;;;;;;;;19.54;56.05;95665.53;6355556;27;19927;-66
2022/07/04 08:38:27;;;;;;;;;;;;;;;19.11;57.67;95670.66;6336998;27;19923;-66
2022/07/04 08:41:35;;;;;;;;;;;;;;;18.66;59.51;95667.03;6321040;27;20305;-65
2022/07/04 08:44:39;;;;;;;;;;;;;;;18.11;61.17;95668.91;6288249;28;20310;-66
2022/07/04 08:47:43;;;;;;;;;;;;;;;17.61;62.47;95669.31;6283607;28;19924;-67
2022/07/04 08:50:54;;;;;;;;;;;;;;;17.31;63.73;95671.72;6290470;28;19925;-67
2022/07/04 08:53:58;;;;;;;;;;;;;;;17.12;64.59;95674.75;6283310;28;19925;-67
2022/07/04 09:00:22;;;;;;;;;;;;;;;16.95;65.09;95684.59;6269218;28;19924;-71
2022/07/04 09:03:26;;;;;;;;;;;;;;;16.85;65.11;95684.78;6286354;28;20030;-63
2022/07/04 09:06:31;;;;;;;;;;;;;;;16.88;64.97;95680.97;6289085;28;20302;-63
2022/07/04 09:09:34;;;;;;;;;;;;;;;16.83;64.62;95676.13;6285689;28;19974;-63
2022/07/04 09:12:37;;;;;;;;;;;;;;;16.85;64.88;95686.59;6274988;28;20385;-65
2022/07/04 09:15:42;;;;;;;;;;;;;;;16.75;65.76;95681.41;6284530;28;19924;-63
2022/07/04 09:18:45;;;;;;;;;;;;;;;16.67;66.59;95692.03;6274828;28;19924;-62
2022/07/04 09:21:49;;;;;;;;;;;;;;;16.61;67.17;95686.38;6285679;28;19928;-63
2022/07/04 09:24:54;;;;;;;;;;;;;;;16.65;67.24;95691.41;6269587;28;19925;-62
2022/07/04 09:28:00;;;;;;;;;;;;;;;16.49;67.42;95693.03;6267356;28;19925;-62
2022/07/04 09:31:18;;;;;;;;;;;;;;;16.38;67.74;95696.84;6282808;28;19925;-63
2022/07/04 09:34:22;;;;;;;;;;;;;;;16.51;68.48;95693.72;6274719;28;20582;-63
2022/07/04 09:37:34;;;;;;;;;;;;;;;16.56;68.29;95694.03;6268594;28;19924;-63
2022/07/04 09:44:04;;;;;;;;;;;;;;;16.98;68.22;95703.66;6263431;28;20386;-64
2022/07/04 09:47:34;;;;;;;;;;;;;;;17.01;67.50;95702.50;6277468;28;19925;-63
2022/07/04 09:50:36;;;;;;;;;;;;;;;17.07;67.34;95707.19;6258550;28;19921;-63
2022/07/04 09:53:37;;;;;;;;;;;;;;;17.24;66.90;95705.31;6261519;28;20027;-62
2022/07/04 09:56:41;;;;;;;;;;;;;;;17.19;67.28;95691.72;6273347;28;19943;-62
2022/07/04 09:59:43;;;;;;;;;;;;;;;17.22;67.21;95694.03;6276376;28;19948;-62
2022/07/04 10:02:44;;;;;;;;;;;;;;;17.30;66.61;95696.66;6278647;28;20585;-64
2022/07/04 10:06:03;;;;;;;;;;;;;;;17.33;66.42;95698.16;6278029;28;19935;-70
2022/07/04 10:09:14;;;;;;;;;;;;;;;17.44;66.24;95703.94;6285316;28;20435;-63
2022/07/04 10:12:24;;;;;;;;;;;;;;;17.23;66.36;95701.81;6274249;28;19925;-63
2022/07/04 10:15:25;;;;;;;;;;;;;;;17.04;66.93;95712.81;6272803;28;19929;-63
2022/07/04 10:18:29;;;;;;;;;;;;;;;16.90;67.71;95701.06;6272269;28;20414;-63
2022/07/04 10:21:31;;;;;;;;;;;;;;;16.69;67.83;95703.34;6272677;28;19932;-64
2022/07/04 10:24:34;;;;;;;;;;;;;;;16.65;68.43;95696.72;6272748;28;20465;-63
2022/07/04 10:27:36;;;;;;;;;;;;;;;16.53;68.54;95696.19;6273074;28;19924;-64
2022/07/04 10:30:38;;;;;;;;;;;;;;;16.44;68.58;95699.84;6272000;28;20313;-63
2022/07/04 10:33:45;;;;;;;;;;;;;;;16.42;68.64;95697.34;6273193;28;19925;-63
2022/07/04 10:36:52;;;;;;;;;;;;;;;16.67;68.64;95698.19;6275595;28;19924;-64
2022/07/04 10:39:56;;;;;;;;;;;;;;;16.99;67.72;95705.34;6271870;28;19925;-63
2022/07/04 10:42:59;;;;;;;;;;;;;;;17.34;66.77;95703.28;6271645;28;19924;-62
2022/07/04 10:46:12;;;;;;;;;;;;;;;17.68;65.28;95699.53;6272299;28;19932;-64
2022/07/04 10:49:13;;;;;;;;;;;;;;;18.03;63.66;95692.06;6267922;28;19932;-63
2022/07/04 10:52:14;;;;;;;;;;;;;;;18.12;63.14;95699.03;6271471;28;19932;-63
2022/07/04 10:55:18;;;;;;;;;;;;;;;18.15;63.00;95701.34;6270843;28;20015;-65
2022/07/04 10:58:42;;;;;;;;;;;;;;;18.17;63.03;95704.66;6271130;28;19925;-64
2022/07/04 11:01:47;;;;;;;;;;;;;;;18.33;62.81;95707.22;6272228;28;19935;-63
2022/07/04 11:05:06;;;;;;;;;;;;;;;18.55;61.82;95715.41;6271991;28;19932;-63
2022/07/04 11:08:09;;;;;;;;;;;;;;;18.60;61.02;95721.03;6272426;28;19924;-63
2022/07/04 11:11:32;;;;;;;;;;;;;;;18.62;60.10;95721.66;6285484;28;19924;-63
2022/07/04 11:14:48;;;;;;;;;;;;;;;18.49;60.45;95724.13;6296475;28;20286;-64
2022/07/04 11:17:51;;;;;;;;;;;;;;;18.20;60.74;95725.59;6293647;28;20344;-64
2022/07/04 11:20:52;;;;;;;;;;;;;;;18.17;61.24;95731.25;6271516;28;19928;-64
2022/07/04 11:23:56;;;;;;;;;;;;;;;18.01;61.29;95723.38;6270900;28;19925;-63
2022/07/04 11:26:57;;;;;;;;;;;;;;;18.04;61.34;95734.50;6271245;28;20310;-63
2022/07/04 11:30:01;;;;;;;;;;;;;;;17.79;61.43;95722.31;6269421;28;20390;-64
2022/07/04 11:33:15;;;;;;;;;;;;;;;17.78;61.95;95732.13;6285833;28;19932;-61
2022/07/04 11:36:20;;;;;;;;;;;;;;;17.88;61.35;95727.41;6270018;28;19924;-63
2022/07/04 11:39:22;;;;;;;;;;;;;;;18.04;61.29;95731.84;6287299;28;19927;-62
2022/07/04 11:45:45;;;;;;;;;;;;;;;18.08;61.00;95733.16;6275904;28;19925;-62
2022/07/04 11:48:48;;;;;;;;;;;;;;;18.05;61.00;95732.66;6270470;28;20400;-61
2022/07/04 11:51:49;;;;;;;;;;;;;;;17.99;60.77;95744.00;6286221;28;19924;-61
2022/07/04 11:54:51;;;;;;;;;;;;;;;17.75;61.07;95743.09;6281862;28;19924;-61
2022/07/04 11:57:54;;;;;;;;;;;;;;;17.28;61.98;95742.03;6287511;28;20304;-61
2022/07/04 12:00:55;;;;;;;;;;;;;;;17.00;62.77;95738.88;6283611;28;19924;-62
2022/07/04 12:04:10;;;;;;;;;;;;;;;17.05;63.09;95731.25;6278817;28;20614;-67
2022/07/04 12:07:13;;;;;;;;;;;;;;;17.11;62.87;95739.56;6272403;28;20310;-61
2022/07/04 12:10:14;;;;;;;;;;;;;;;17.08;63.16;95750.53;6266089;28;20288;-61
2022/07/04 12:13:16;;;;;;;;;;;;;;;17.06;63.12;95737.38;6279822;28;20023;-60
2022/07/04 12:16:20;;;;;;;;;;;;;;;17.09;63.01;95752.19;6270037;28;19995;-60
2022/07/04 12:19:21;;;;;;;;;;;;;;;16.95;63.08;95751.00;6279993;28;19971;-60
2022/07/04 12:22:25;;;;;;;;;;;;;;;16.99;63.07;95752.34;6257977;28;20298;-60
2022/07/04 12:25:26;;;;;;;;;;;;;;;16.99;63.13;95763.81;6246138;28;19940;-60
2022/07/04 12:28:34;;;;;;;;;;;;;;;16.88;63.11;95766.81;6269181;28;19924;-61
2022/07/04 12:31:39;;;;;;;;;;;;;;;16.93;62.91;95748.53;6269917;28;19924;-60
2022/07/04 12:34:43;;;;;;;;;;;;;;;16.83;62.91;95769.13;6270033;28;19925;-59
2022/07/04 12:37:59;;;;;;;;;;;;;;;16.84;62.94;95760.13;6269558;28;19936;-60
2022/07/04 12:41:13;;;;;;;;;;;;;;;16.84;62.90;95770.75;6269172;28;20028;-61
2022/07/04 12:44:21;;;;;;;;;;;;;;;16.82;62.94;95770.13;6269150;28;20382;-60
2022/07/04 12:47:22;;;;;;;;;;;;;;;16.69;63.78;95772.41;6263070;28;20008;-61
2022/07/04 12:50:26;;;;;;;;;;;;;;;16.73;62.88;95773.72;6282970;28;19944;-59
2022/07/04 12:53:35;;;;;;;;;;;;;;;16.54;63.88;95785.50;6281002;28;19932;-59
2022/07/04 12:56:42;;;;;;;;;;;;;;;16.31;64.05;95785.28;6270780;28;19924;-60
2022/07/04 12:59:45;;;;;;;;;;;;;;;16.12;64.28;95797.81;6265836;28;20055;-61
2022/07/04 13:02:49;;;;;;;;;;;;;;;16.33;64.29;95791.22;6267019;28;19925;-60
2022/07/04 13:05:52;;;;;;;;;;;;;;;16.45;63.23;95795.25;6268487;28;19924;-63
2022/07/04 13:08:56;;;;;;;;;;;;;;;16.24;63.50;95800.16;6269725;28;19925;-60
2022/07/04 13:15:22;;;;;;;;;;;;;;;16.32;63.45;95813.47;6269160;28;19925;-60
2022/07/04 13:18:25;;;;;;;;;;;;;;;16.20;63.26;95814.75;6267903;28;20231;-60
2022/07/04 13:21:27;;;;;;;;;;;;;;;15.99;63.63;95826.59;6265172;28;19925;-60
2022/07/04 13:24:28;;;;;;;;;;;;;;;16.00;63.91;95830.94;6269188;28;20398;-60
2022/07/04 13:27:29;;;;;;;;;;;;;;;16.21;63.55;95832.34;6266660;28;19924;-61
2022/07/04 13:30:35;;;;;;;;;;;;;;;16.45;62.64;95819.16;6267818;28;19924;-60
2022/07/04 13:33:38;;;;;;;;;;;;;;;16.49;61.71;95831.09;6268652;28;19944;-61
2022/07/04 13:36:42;;;;;;;;;;;;;;;16.50;61.55;95822.16;6259513;28;19932;-61
2022/07/04 13:39:43;;;;;;;;;;;;;;;16.69;60.60;95836.13;6263358;28;19920;-60
2022/07/04 13:42:58;;;;;;;;;;;;;;;16.60;60.50;95828.16;6268746;28;20014;-61
2022/07/04 13:46:03;;;;;;;;;;;;;;;16.59;60.25;95828.31;6267926;28;19929;-61
2022/07/04 13:49:06;;;;;;;;;;;;;;;16.48;60.69;95828.63;6277513;28;19924;-61
2022/07/04 13:52:10;;;;;;;;;;;;;;;16.67;60.53;95838.13;6279952;28;19925;-62
2022/07/04 13:55:13;;;;;;;;;;;;;;;16.68;60.03;95834.50;6268805;28;19936;-62
2022/07/04 13:58:17;;;;;;;;;;;;;;;16.77;60.09;95833.53;6269267;28;19932;-62
2022/07/04 14:01:19;;;;;;;;;;;;;;;16.84;59.78;95839.84;6268193;28;20351;-62
2022/07/04 14:04:20;;;;;;;;;;;;;;;16.66;60.32;95844.44;6286096;28;20031;-63
2022/07/04 14:07:21;;;;;;;;;;;;;;;16.36;61.06;95849.31;6262143;28;20023;-62
2022/07/04 14:10:25;;;;;;;;;;;;;;;16.25;61.46;95846.94;6265512;28;19924;-62
2022/07/04 14:13:27;;;;;;;;;;;;;;;16.32;60.67;95854.13;6268813;28;19931;-62
2022/07/04 14:16:28;;;;;;;;;;;;;;;16.26;60.23;95857.41;6267722;28;19929;-60
2022/07/04 14:19:34;;;;;;;;;;;;;;;16.10;60.44;95859.97;6279776;28;19930;-63
2022/07/04 14:22:37;;;;;;;;;;;;;;;16.12;60.39;95868.63;6292224;28;19924;-63
2022/07/04 14:25:38;;;;;;;;;;;;;;;16.19;60.36;95863.50;6276453;28;19924;-62
2022/07/04 14:28:40;;;;;;;;;;;;;;;16.11;60.07;95862.50;6287782;28;20504;-63
2022/07/04 14:31:41;;;;;;;;;;;;;;;16.11;60.17;95870.44;6283431;28;20027;-62
2022/07/04 14:34:42;;;;;;;;;;;;;;;16.00;60.19;95868.06;6292562;28;19925;-62
2022/07/04 14:37:43;;;;;;;;;;;;;;;16.02;60.30;95865.25;6268030;28;20019;-62
2022/07/04 14:40:49;;;;;;;;;;;;;;;16.14;59.87;95880.75;6278456;28;19925;-67
2022/07/04 14:43:54;;;;;;;;;;;;;;;16.01;60.03;95882.16;6272292;28;19924;-75
2022/07/04 14:46:55;;;;;;;;;;;;;;;16.00;60.19;95889.31;6271177;28;19925;-74
2022/07/04 14:49:59;;;;;;;;;;;;;;;15.95;59.98;95880.97;6264708;28;19925;-73
2022/07/04 14:53:04;;;;;;;;;;;;;;;16.02;59.58;95879.38;6271320;28;19924;-72
2022/07/04 14:56:05;;;;;;;;;;;;;;;15.83;60.15;95893.66;6270155;28;20011;-71
2022/07/04 14:59:06;;;;;;;;;;;;;;;15.81;60.14;95878.91;6286373;28;19925;-72
2022/07/04 15:02:08;;;;;;;;;;;;;;;15.78;60.02;95885.34;6268595;28;20010;-71
2022/07/04 15:05:10;;;;;;;;;;;;;;;15.75;60.37;95890.13;6269244;28;20313;-72
2022/07/04 15:08:12;;;;;;;;;;;;;;;15.90;60.00;95886.75;6270934;28;19925;-71
2022/07/04 15:11:17;;;;;;;;;;;;;;;15.87;59.96;95888.88;6271782;28;20007;-72
2022/07/04 15:14:21;;;;;;;;;;;;;;;15.75;60.31;95890.97;6271787;28;20066;-72
2022/07/04 15:17:24;;;;;;;;;;;;;;;15.82;60.32;95891.16;6271769;28;20472;-72
2022/07/04 15:27:07;;;;;;;;;;;;;;;15.89;59.18;95902.81;6271281;28;19986;-74
2022/07/04 15:30:11;;;;;;;;;;;;;;;15.78;59.24;95905.72;6271621;28;19925;-72
2022/07/04 15:33:16;;;;;;;;;;;;;;;15.62;59.44;95909.88;6271030;28;20036;-72
2022/07/04 15:36:22;;;;;;;;;;;;;;;15.75;58.46;95900.75;6271407;28;20019;-72
2022/07/04 15:39:26;;;;;;;;;;;;;;;15.54;59.12;95909.84;6271319;28;20444;-70
2022/07/04 15:42:31;;;;;;;;;;;;;;;15.45;59.29;95914.22;6271269;28;19932;-72
2022/07/04 15:45:36;;;;;;;;;;;;;;;15.42;59.46;95909.22;6271174;28;19931;-71
2022/07/04 15:48:39;;;;;;;;;;;;;;;15.44;59.68;95909.09;6270815;28;19924;-73
2022/07/04 15:51:42;;;;;;;;;;;;;;;15.36;59.90;95916.97;6271112;28;19921;-71
2022/07/04 15:54:45;;;;;;;;;;;;;;;15.40;60.22;95913.00;6270930;28;19925;-72
2022/07/04 15:57:47;;;;;;;;;;;;;;;15.36;59.89;95923.09;6270439;28;19925;-71
2022/07/04 16:00:50;;;;;;;;;;;;;;;15.39;58.79;95920.13;6271071;28;19920;-72
2022/07/04 16:03:51;;;;;;;;;;;;;;;15.43;57.66;95928.66;6277801;28;20441;-72
2022/07/04 16:06:53;;;;;;;;;;;;;;;15.13;58.39;95937.78;6281954;28;19929;-71
2022/07/04 16:09:57;;;;;;;;;;;;;;;15.11;58.43;95940.56;6268321;28;19928;-71
2022/07/04 16:13:01;;;;;;;;;;;;;;;14.99;58.97;95947.91;6267985;28;19951;-71
2022/07/04 16:16:06;;;;;;;;;;;;;;;15.04;59.08;95952.78;6252496;28;19924;-72
2022/07/04 16:19:09;;;;;;;;;;;;;;;15.04;59.46;95960.72;6269356;28;19925;-72
2022/07/04 16:22:12;;;;;;;;;;;;;;;14.96;59.47;95952.69;6270753;28;19924;-71
2022/07/04 16:25:14;;;;;;;;;;;;;;;15.10;59.56;95960.13;6270531;28;19929;-71
2022/07/04 16:28:17;;;;;;;;;;;;;;;14.89;59.87;95957.75;6269209;28;20387;-72